sensor_id;sensor_type;location;lat;lon;timestamp;P1;durP1;ratioP1;P2;durP2;ratioP2
8632;SDS011;4354;49.832;10.746;2022-10-04T00:01:30;15.20;;;5.50;;
8632;SDS011;4354;49.832;10.746;2022-10-04T00:04:12;15.70;;;5.07;;
8632;SDS011;4354;49.832;10.746;2022-10-04T00:07:06;8.10;;;5.40;;
8632;SDS011;4354;49.832;10.746;2022-10-04T00:09:51;11.77;;;5.00;;
8632;SDS011;4354;49.832;10.746;2022-10-04T00:12:27;6.73;;;4.80;;
8632;SDS011;4354;49.832;10.746;2022-10-04T00:26:00;15.77;;;6.27;;
8632;SDS011;4354;49.832;10.746;2022-10-04T00:28:50;17.30;;;6.30;;
8632;SDS011;4354;49.832;10.746;2022-10-04T00:31:21;11.50;;;5.23;;
8632;SDS011;4354;49.832;10.746;2022-10-04T00:33:51;12.57;;;4.67;;
8632;SDS011;4354;49.832;10.746;2022-10-04T00:36:36;4.90;;;3.97;;
8632;SDS011;4354;49.832;10.746;2022-10-04T00:39:12;4.77;;;3.93;;
8632;SDS011;4354;49.832;10.746;2022-10-04T00:47:21;5.70;;;4.23;;
8632;SDS011;4354;49.832;10.746;2022-10-04T00:49:53;4.73;;;3.97;;
8632;SDS011;4354;49.832;10.746;2022-10-04T00:52:44;5.50;;;3.53;;
8632;SDS011;4354;49.832;10.746;2022-10-04T00:55:39;4.27;;;3.87;;
8632;SDS011;4354;49.832;10.746;2022-10-04T00:58:11;11.77;;;4.53;;
8632;SDS011;4354;49.832;10.746;2022-10-04T01:00:47;6.40;;;4.53;;
8632;SDS011;4354;49.832;10.746;2022-10-04T01:03:19;17.47;;;4.70;;
8632;SDS011;4354;49.832;10.746;2022-10-04T01:05:53;4.70;;;3.77;;
8632;SDS011;4354;49.832;10.746;2022-10-04T01:09:05;6.20;;;4.10;;
8632;SDS011;4354;49.832;10.746;2022-10-04T01:11:27;5.37;;;4.60;;
8632;SDS011;4354;49.832;10.746;2022-10-04T01:16:33;14.00;;;4.90;;
8632;SDS011;4354;49.832;10.746;2022-10-04T01:21:56;12.63;;;4.53;;
8632;SDS011;4354;49.832;10.746;2022-10-04T01:24:37;7.53;;;3.90;;
8632;SDS011;4354;49.832;10.746;2022-10-04T01:27:51;10.33;;;3.53;;
8632;SDS011;4354;49.832;10.746;2022-10-04T01:29:58;4.20;;;3.57;;
8632;SDS011;4354;49.832;10.746;2022-10-04T01:32:26;7.13;;;4.10;;
8632;SDS011;4354;49.832;10.746;2022-10-04T01:34:53;4.03;;;3.63;;
8632;SDS011;4354;49.832;10.746;2022-10-04T01:37:21;11.83;;;4.43;;
8632;SDS011;4354;49.832;10.746;2022-10-04T01:39:48;14.23;;;4.27;;
8632;SDS011;4354;49.832;10.746;2022-10-04T01:47:42;3.63;;;3.33;;
8632;SDS011;4354;49.832;10.746;2022-10-04T01:50:15;5.07;;;3.90;;
8632;SDS011;4354;49.832;10.746;2022-10-04T01:52:59;7.23;;;3.80;;
8632;SDS011;4354;49.832;10.746;2022-10-04T01:55:34;5.60;;;3.40;;
8632;SDS011;4354;49.832;10.746;2022-10-04T01:58:06;7.73;;;3.17;;
8632;SDS011;4354;49.832;10.746;2022-10-04T02:00:46;8.53;;;4.00;;
8632;SDS011;4354;49.832;10.746;2022-10-04T02:03:43;7.17;;;3.67;;
8632;SDS011;4354;49.832;10.746;2022-10-04T02:06:17;6.50;;;3.67;;
8632;SDS011;4354;49.832;10.746;2022-10-04T02:08:48;15.13;;;3.87;;
8632;SDS011;4354;49.832;10.746;2022-10-04T02:11:18;4.50;;;4.10;;
8632;SDS011;4354;49.832;10.746;2022-10-04T02:13:47;17.07;;;3.97;;
8632;SDS011;4354;49.832;10.746;2022-10-04T02:16:16;6.80;;;3.90;;
8632;SDS011;4354;49.832;10.746;2022-10-04T02:18:44;11.30;;;4.80;;
8632;SDS011;4354;49.832;10.746;2022-10-04T02:21:13;9.93;;;3.93;;
8632;SDS011;4354;49.832;10.746;2022-10-04T02:23:41;28.90;;;4.10;;
8632;SDS011;4354;49.832;10.746;2022-10-04T02:26:10;40.47;;;5.17;;
8632;SDS011;4354;49.832;10.746;2022-10-04T02:28:37;6.43;;;3.70;;
8632;SDS011;4354;49.832;10.746;2022-10-04T02:31:05;6.37;;;3.37;;
8632;SDS011;4354;49.832;10.746;2022-10-04T02:33:54;37.30;;;4.83;;
8632;SDS011;4354;49.832;10.746;2022-10-04T02:36:28;46.83;;;4.70;;
8632;SDS011;4354;49.832;10.746;2022-10-04T02:39:03;6.33;;;3.43;;
8632;SDS011;4354;49.832;10.746;2022-10-04T02:41:56;18.10;;;4.67;;
8632;SDS011;4354;49.832;10.746;2022-10-04T02:44:29;10.47;;;3.90;;
8632;SDS011;4354;49.832;10.746;2022-10-04T02:47:08;13.90;;;3.77;;
8632;SDS011;4354;49.832;10.746;2022-10-04T02:49:45;4.73;;;3.40;;
8632;SDS011;4354;49.832;10.746;2022-10-04T02:52:24;7.17;;;3.13;;
8632;SDS011;4354;49.832;10.746;2022-10-04T02:55:05;3.47;;;3.00;;
8632;SDS011;4354;49.832;10.746;2022-10-04T02:57:40;7.20;;;3.80;;
8632;SDS011;4354;49.832;10.746;2022-10-04T03:00:12;4.83;;;3.50;;
8632;SDS011;4354;49.832;10.746;2022-10-04T03:05:41;7.07;;;4.03;;
8632;SDS011;4354;49.832;10.746;2022-10-04T03:08:33;9.70;;;3.80;;
8632;SDS011;4354;49.832;10.746;2022-10-04T03:11:09;17.63;;;4.30;;
8632;SDS011;4354;49.832;10.746;2022-10-04T03:13:39;6.27;;;3.87;;
8632;SDS011;4354;49.832;10.746;2022-10-04T03:16:10;6.87;;;3.90;;
8632;SDS011;4354;49.832;10.746;2022-10-04T03:18:39;37.70;;;5.63;;
8632;SDS011;4354;49.832;10.746;2022-10-04T03:21:08;20.67;;;5.00;;
8632;SDS011;4354;49.832;10.746;2022-10-04T03:23:40;7.37;;;4.07;;
8632;SDS011;4354;49.832;10.746;2022-10-04T03:28:49;21.07;;;4.80;;
8632;SDS011;4354;49.832;10.746;2022-10-04T03:31:16;4.57;;;4.17;;
8632;SDS011;4354;49.832;10.746;2022-10-04T03:33:45;8.77;;;3.97;;
8632;SDS011;4354;49.832;10.746;2022-10-04T03:36:13;19.40;;;4.03;;
8632;SDS011;4354;49.832;10.746;2022-10-04T03:38:44;16.93;;;4.10;;
8632;SDS011;4354;49.832;10.746;2022-10-04T03:41:13;25.80;;;4.77;;
8632;SDS011;4354;49.832;10.746;2022-10-04T03:43:43;7.63;;;4.03;;
8632;SDS011;4354;49.832;10.746;2022-10-04T03:46:12;15.13;;;4.53;;
8632;SDS011;4354;49.832;10.746;2022-10-04T03:48:41;11.97;;;3.90;;
8632;SDS011;4354;49.832;10.746;2022-10-04T03:51:16;13.47;;;4.50;;
8632;SDS011;4354;49.832;10.746;2022-10-04T03:53:47;6.40;;;4.00;;
8632;SDS011;4354;49.832;10.746;2022-10-04T03:56:21;10.17;;;4.80;;
8632;SDS011;4354;49.832;10.746;2022-10-04T03:58:58;36.97;;;6.20;;
8632;SDS011;4354;49.832;10.746;2022-10-04T04:01:34;20.10;;;5.53;;
8632;SDS011;4354;49.832;10.746;2022-10-04T04:10:33;21.20;;;4.63;;
8632;SDS011;4354;49.832;10.746;2022-10-04T04:12:48;13.00;;;4.87;;
8632;SDS011;4354;49.832;10.746;2022-10-04T04:15:30;5.50;;;4.63;;
8632;SDS011;4354;49.832;10.746;2022-10-04T04:18:03;5.60;;;4.57;;
8632;SDS011;4354;49.832;10.746;2022-10-04T04:20:36;8.07;;;4.70;;
8632;SDS011;4354;49.832;10.746;2022-10-04T04:23:11;5.53;;;4.50;;
8632;SDS011;4354;49.832;10.746;2022-10-04T04:25:50;7.30;;;5.10;;
8632;SDS011;4354;49.832;10.746;2022-10-04T04:28:25;8.00;;;4.73;;
8632;SDS011;4354;49.832;10.746;2022-10-04T04:31:17;7.23;;;5.30;;
8632;SDS011;4354;49.832;10.746;2022-10-04T04:34:01;7.13;;;5.00;;
8632;SDS011;4354;49.832;10.746;2022-10-04T04:36:30;8.40;;;6.27;;
8632;SDS011;4354;49.832;10.746;2022-10-04T04:42:44;6.60;;;5.23;;
8632;SDS011;4354;49.832;10.746;2022-10-04T04:44:59;9.93;;;7.47;;
8632;SDS011;4354;49.832;10.746;2022-10-04T04:47:35;11.13;;;7.93;;
8632;SDS011;4354;49.832;10.746;2022-10-04T04:52:44;8.83;;;6.43;;
8632;SDS011;4354;49.832;10.746;2022-10-04T04:55:18;8.00;;;5.97;;
8632;SDS011;4354;49.832;10.746;2022-10-04T04:57:50;12.63;;;8.20;;
8632;SDS011;4354;49.832;10.746;2022-10-04T05:00:22;8.90;;;7.00;;
8632;SDS011;4354;49.832;10.746;2022-10-04T05:02:59;8.17;;;5.73;;
8632;SDS011;4354;49.832;10.746;2022-10-04T05:05:29;10.77;;;6.53;;
8632;SDS011;4354;49.832;10.746;2022-10-04T05:10:43;8.30;;;5.67;;
8632;SDS011;4354;49.832;10.746;2022-10-04T05:13:12;8.23;;;5.57;;
8632;SDS011;4354;49.832;10.746;2022-10-04T05:15:40;8.93;;;5.87;;
8632;SDS011;4354;49.832;10.746;2022-10-04T05:18:12;8.77;;;5.57;;
8632;SDS011;4354;49.832;10.746;2022-10-04T05:21:05;6.37;;;5.50;;
8632;SDS011;4354;49.832;10.746;2022-10-04T05:23:54;10.30;;;5.87;;
8632;SDS011;4354;49.832;10.746;2022-10-04T05:26:27;8.53;;;6.20;;
8632;SDS011;4354;49.832;10.746;2022-10-04T05:28:58;10.60;;;6.37;;
8632;SDS011;4354;49.832;10.746;2022-10-04T05:34:24;11.07;;;6.17;;
8632;SDS011;4354;49.832;10.746;2022-10-04T05:44:51;13.27;;;6.77;;
8632;SDS011;4354;49.832;10.746;2022-10-04T05:47:20;13.10;;;7.07;;
8632;SDS011;4354;49.832;10.746;2022-10-04T05:49:51;9.47;;;6.50;;
8632;SDS011;4354;49.832;10.746;2022-10-04T05:52:25;10.47;;;6.80;;
8632;SDS011;4354;49.832;10.746;2022-10-04T05:55:17;9.87;;;7.23;;
8632;SDS011;4354;49.832;10.746;2022-10-04T06:03:35;19.43;;;8.17;;
8632;SDS011;4354;49.832;10.746;2022-10-04T06:15:24;9.70;;;7.37;;
8632;SDS011;4354;49.832;10.746;2022-10-04T06:21:08;8.33;;;6.50;;
8632;SDS011;4354;49.832;10.746;2022-10-04T06:23:45;9.50;;;7.47;;
8632;SDS011;4354;49.832;10.746;2022-10-04T06:26:19;19.10;;;9.03;;
8632;SDS011;4354;49.832;10.746;2022-10-04T06:28:51;10.27;;;7.93;;
8632;SDS011;4354;49.832;10.746;2022-10-04T06:34:35;8.10;;;6.73;;
8632;SDS011;4354;49.832;10.746;2022-10-04T06:40:23;8.07;;;6.60;;
8632;SDS011;4354;49.832;10.746;2022-10-04T06:45:56;8.83;;;7.00;;
8632;SDS011;4354;49.832;10.746;2022-10-04T07:05:41;9.57;;;6.47;;
8632;SDS011;4354;49.832;10.746;2022-10-04T07:10:58;9.07;;;7.00;;
8632;SDS011;4354;49.832;10.746;2022-10-04T07:24:47;9.00;;;7.83;;
8632;SDS011;4354;49.832;10.746;2022-10-04T07:27:28;7.97;;;7.00;;
8632;SDS011;4354;49.832;10.746;2022-10-04T07:30:13;9.63;;;6.53;;
8632;SDS011;4354;49.832;10.746;2022-10-04T07:32:42;7.70;;;6.40;;
8632;SDS011;4354;49.832;10.746;2022-10-04T07:41:02;6.87;;;5.60;;
8632;SDS011;4354;49.832;10.746;2022-10-04T07:48:49;5.87;;;5.37;;
8632;SDS011;4354;49.832;10.746;2022-10-04T07:54:11;6.23;;;5.53;;
8632;SDS011;4354;49.832;10.746;2022-10-04T07:56:58;7.03;;;5.70;;
8632;SDS011;4354;49.832;10.746;2022-10-04T08:19:09;8.37;;;7.20;;
8632;SDS011;4354;49.832;10.746;2022-10-04T08:25:03;11.40;;;8.80;;
8632;SDS011;4354;49.832;10.746;2022-10-04T08:28:01;11.17;;;9.20;;
8632;SDS011;4354;49.832;10.746;2022-10-04T08:31:15;9.30;;;7.83;;
8632;SDS011;4354;49.832;10.746;2022-10-04T08:39:56;10.03;;;9.03;;
8632;SDS011;4354;49.832;10.746;2022-10-04T08:44:53;12.83;;;10.33;;
8632;SDS011;4354;49.832;10.746;2022-10-04T09:09:45;9.17;;;8.20;;
8632;SDS011;4354;49.832;10.746;2022-10-04T09:12:27;8.55;;;7.65;;
8632;SDS011;4354;49.832;10.746;2022-10-04T09:23:39;9.93;;;7.07;;
8632;SDS011;4354;49.832;10.746;2022-10-04T09:26:23;6.93;;;6.32;;
8632;SDS011;4354;49.832;10.746;2022-10-04T09:29:18;8.05;;;7.15;;
8632;SDS011;4354;49.832;10.746;2022-10-04T09:34:38;7.30;;;6.60;;
8632;SDS011;4354;49.832;10.746;2022-10-04T09:40:20;7.93;;;6.60;;
8632;SDS011;4354;49.832;10.746;2022-10-04T09:54:09;7.47;;;6.78;;
8632;SDS011;4354;49.832;10.746;2022-10-04T10:00:21;5.85;;;5.25;;
8632;SDS011;4354;49.832;10.746;2022-10-04T10:05:47;7.10;;;6.15;;
8632;SDS011;4354;49.832;10.746;2022-10-04T10:11:17;6.28;;;5.68;;
8632;SDS011;4354;49.832;10.746;2022-10-04T10:14:34;9.55;;;5.45;;
8632;SDS011;4354;49.832;10.746;2022-10-04T10:23:30;8.68;;;5.40;;
8632;SDS011;4354;49.832;10.746;2022-10-04T10:26:46;7.22;;;5.50;;
8632;SDS011;4354;49.832;10.746;2022-10-04T10:29:20;5.97;;;5.28;;
8632;SDS011;4354;49.832;10.746;2022-10-04T10:31:59;7.28;;;5.07;;
8632;SDS011;4354;49.832;10.746;2022-10-04T10:38:01;8.48;;;5.22;;
8632;SDS011;4354;49.832;10.746;2022-10-04T10:43:53;9.07;;;5.25;;
8632;SDS011;4354;49.832;10.746;2022-10-04T11:00:41;4.47;;;3.38;;
8632;SDS011;4354;49.832;10.746;2022-10-04T11:09:30;4.65;;;2.75;;
8632;SDS011;4354;49.832;10.746;2022-10-04T11:15:36;5.93;;;3.13;;
8632;SDS011;4354;49.832;10.746;2022-10-04T11:26:55;29.02;;;17.02;;
8632;SDS011;4354;49.832;10.746;2022-10-04T11:44:10;5.70;;;3.45;;
8632;SDS011;4354;49.832;10.746;2022-10-04T11:55:05;7.47;;;2.95;;
8632;SDS011;4354;49.832;10.746;2022-10-04T11:58:07;4.68;;;2.53;;
8632;SDS011;4354;49.832;10.746;2022-10-04T12:08:48;5.78;;;2.47;;
8632;SDS011;4354;49.832;10.746;2022-10-04T12:17:01;6.32;;;2.92;;
8632;SDS011;4354;49.832;10.746;2022-10-04T12:33:05;5.32;;;2.05;;
8632;SDS011;4354;49.832;10.746;2022-10-04T12:35:45;5.40;;;2.38;;
8632;SDS011;4354;49.832;10.746;2022-10-04T12:52:29;4.00;;;1.45;;
8632;SDS011;4354;49.832;10.746;2022-10-04T12:57:54;4.50;;;1.73;;
8632;SDS011;4354;49.832;10.746;2022-10-04T13:00:31;4.10;;;1.42;;
8632;SDS011;4354;49.832;10.746;2022-10-04T13:14:07;3.47;;;1.30;;
8632;SDS011;4354;49.832;10.746;2022-10-04T13:22:43;4.45;;;1.60;;
8632;SDS011;4354;49.832;10.746;2022-10-04T13:54:50;2.47;;;1.50;;
8632;SDS011;4354;49.832;10.746;2022-10-04T13:57:45;4.93;;;1.58;;
8632;SDS011;4354;49.832;10.746;2022-10-04T14:03:31;4.53;;;1.75;;
8632;SDS011;4354;49.832;10.746;2022-10-04T14:08:59;3.45;;;1.77;;
8632;SDS011;4354;49.832;10.746;2022-10-04T14:11:42;3.97;;;2.03;;
8632;SDS011;4354;49.832;10.746;2022-10-04T14:14:49;3.28;;;1.55;;
8632;SDS011;4354;49.832;10.746;2022-10-04T14:53:59;3.10;;;1.35;;
8632;SDS011;4354;49.832;10.746;2022-10-04T15:07:37;2.72;;;0.98;;
8632;SDS011;4354;49.832;10.746;2022-10-04T15:10:15;3.08;;;1.27;;
8632;SDS011;4354;49.832;10.746;2022-10-04T15:13:19;5.75;;;1.50;;
8632;SDS011;4354;49.832;10.746;2022-10-04T15:16:01;2.28;;;1.35;;
8632;SDS011;4354;49.832;10.746;2022-10-04T15:24:44;3.55;;;1.50;;
8632;SDS011;4354;49.832;10.746;2022-10-04T15:26:50;2.80;;;1.35;;
8632;SDS011;4354;49.832;10.746;2022-10-04T15:29:44;3.50;;;1.60;;
8632;SDS011;4354;49.832;10.746;2022-10-04T15:41:29;4.13;;;1.70;;
8632;SDS011;4354;49.832;10.746;2022-10-04T15:44:25;3.47;;;1.55;;
8632;SDS011;4354;49.832;10.746;2022-10-04T15:52:50;5.35;;;2.63;;
8632;SDS011;4354;49.832;10.746;2022-10-04T16:07:25;3.92;;;2.53;;
8632;SDS011;4354;49.832;10.746;2022-10-04T16:13:22;5.13;;;3.22;;
8632;SDS011;4354;49.832;10.746;2022-10-04T16:32:12;3.08;;;1.60;;
8632;SDS011;4354;49.832;10.746;2022-10-04T16:34:58;3.70;;;1.67;;
8632;SDS011;4354;49.832;10.746;2022-10-04T16:47:49;4.33;;;2.17;;
8632;SDS011;4354;49.832;10.746;2022-10-04T17:12:15;8.37;;;5.90;;
8632;SDS011;4354;49.832;10.746;2022-10-04T17:14:54;8.60;;;6.40;;
8632;SDS011;4354;49.832;10.746;2022-10-04T17:23:20;17.57;;;12.03;;
8632;SDS011;4354;49.832;10.746;2022-10-04T17:42:43;19.53;;;13.40;;
8632;SDS011;4354;49.832;10.746;2022-10-04T17:48:04;16.60;;;11.73;;
8632;SDS011;4354;49.832;10.746;2022-10-04T17:53:50;14.83;;;7.60;;
8632;SDS011;4354;49.832;10.746;2022-10-04T17:59:26;6.77;;;5.17;;
8632;SDS011;4354;49.832;10.746;2022-10-04T18:02:08;8.20;;;5.90;;
8632;SDS011;4354;49.832;10.746;2022-10-04T18:04:37;9.03;;;5.70;;
8632;SDS011;4354;49.832;10.746;2022-10-04T18:07:33;13.70;;;6.97;;
8632;SDS011;4354;49.832;10.746;2022-10-04T18:10:18;14.47;;;8.03;;
8632;SDS011;4354;49.832;10.746;2022-10-04T18:13:18;13.63;;;8.37;;
8632;SDS011;4354;49.832;10.746;2022-10-04T18:15:51;15.37;;;8.97;;
8632;SDS011;4354;49.832;10.746;2022-10-04T18:18:29;13.00;;;8.97;;
8632;SDS011;4354;49.832;10.746;2022-10-04T18:21:05;11.80;;;9.03;;
8632;SDS011;4354;49.832;10.746;2022-10-04T18:23:58;9.97;;;7.93;;
8632;SDS011;4354;49.832;10.746;2022-10-04T18:27:28;12.87;;;8.77;;
8632;SDS011;4354;49.832;10.746;2022-10-04T18:32:51;11.97;;;8.47;;
8632;SDS011;4354;49.832;10.746;2022-10-04T18:35:22;11.33;;;8.47;;
8632;SDS011;4354;49.832;10.746;2022-10-04T18:38:10;11.27;;;7.07;;
8632;SDS011;4354;49.832;10.746;2022-10-04T18:40:57;10.57;;;6.57;;
8632;SDS011;4354;49.832;10.746;2022-10-04T18:46:18;7.43;;;5.53;;
8632;SDS011;4354;49.832;10.746;2022-10-04T18:48:52;7.97;;;4.40;;
8632;SDS011;4354;49.832;10.746;2022-10-04T19:05:44;8.93;;;5.63;;
8632;SDS011;4354;49.832;10.746;2022-10-04T19:11:02;7.73;;;5.43;;
8632;SDS011;4354;49.832;10.746;2022-10-04T19:13:44;10.57;;;7.03;;
8632;SDS011;4354;49.832;10.746;2022-10-04T19:16:32;20.20;;;12.20;;
8632;SDS011;4354;49.832;10.746;2022-10-04T19:32:31;13.80;;;8.83;;
8632;SDS011;4354;49.832;10.746;2022-10-04T19:37:51;11.70;;;7.77;;
8632;SDS011;4354;49.832;10.746;2022-10-04T19:43:31;11.20;;;8.13;;
8632;SDS011;4354;49.832;10.746;2022-10-04T19:46:40;11.80;;;8.07;;
8632;SDS011;4354;49.832;10.746;2022-10-04T19:52:12;12.00;;;7.77;;
8632;SDS011;4354;49.832;10.746;2022-10-04T19:55:05;8.50;;;6.97;;
8632;SDS011;4354;49.832;10.746;2022-10-04T20:01:08;11.37;;;6.27;;
8632;SDS011;4354;49.832;10.746;2022-10-04T20:03:46;7.90;;;5.93;;
8632;SDS011;4354;49.832;10.746;2022-10-04T20:06:34;7.90;;;6.03;;
8632;SDS011;4354;49.832;10.746;2022-10-04T20:13:03;9.90;;;4.90;;
8632;SDS011;4354;49.832;10.746;2022-10-04T20:15:12;10.13;;;5.30;;
8632;SDS011;4354;49.832;10.746;2022-10-04T20:17:42;5.67;;;4.37;;
8632;SDS011;4354;49.832;10.746;2022-10-04T20:20:15;5.37;;;4.47;;
8632;SDS011;4354;49.832;10.746;2022-10-04T20:23:03;7.53;;;3.90;;
8632;SDS011;4354;49.832;10.746;2022-10-04T20:26:15;5.93;;;4.37;;
8632;SDS011;4354;49.832;10.746;2022-10-04T20:30:55;8.37;;;3.60;;
8632;SDS011;4354;49.832;10.746;2022-10-04T20:34:21;5.77;;;3.60;;
8632;SDS011;4354;49.832;10.746;2022-10-04T20:38:45;6.30;;;4.00;;
8632;SDS011;4354;49.832;10.746;2022-10-04T20:47:20;7.70;;;5.17;;
8632;SDS011;4354;49.832;10.746;2022-10-04T20:49:54;5.50;;;4.77;;
8632;SDS011;4354;49.832;10.746;2022-10-04T20:52:29;6.87;;;5.20;;
8632;SDS011;4354;49.832;10.746;2022-10-04T20:54:58;8.37;;;6.10;;
8632;SDS011;4354;49.832;10.746;2022-10-04T20:57:31;9.17;;;6.40;;
8632;SDS011;4354;49.832;10.746;2022-10-04T21:00:15;8.43;;;6.07;;
8632;SDS011;4354;49.832;10.746;2022-10-04T21:02:43;8.97;;;5.70;;
8632;SDS011;4354;49.832;10.746;2022-10-04T21:05:20;9.07;;;6.10;;
8632;SDS011;4354;49.832;10.746;2022-10-04T21:10:59;7.93;;;5.40;;
8632;SDS011;4354;49.832;10.746;2022-10-04T21:21:56;7.20;;;4.37;;
8632;SDS011;4354;49.832;10.746;2022-10-04T21:29:58;4.83;;;3.73;;
8632;SDS011;4354;49.832;10.746;2022-10-04T21:32:26;6.47;;;4.30;;
8632;SDS011;4354;49.832;10.746;2022-10-04T21:34:58;7.40;;;3.53;;
8632;SDS011;4354;49.832;10.746;2022-10-04T21:37:25;6.27;;;3.63;;
8632;SDS011;4354;49.832;10.746;2022-10-04T21:39:52;5.50;;;3.30;;
8632;SDS011;4354;49.832;10.746;2022-10-04T21:42:19;4.40;;;3.30;;
8632;SDS011;4354;49.832;10.746;2022-10-04T21:44:46;4.00;;;3.60;;
8632;SDS011;4354;49.832;10.746;2022-10-04T21:47:13;5.57;;;3.90;;
8632;SDS011;4354;49.832;10.746;2022-10-04T21:49:41;6.60;;;3.90;;
8632;SDS011;4354;49.832;10.746;2022-10-04T21:52:08;5.13;;;3.70;;
8632;SDS011;4354;49.832;10.746;2022-10-04T21:54:35;10.80;;;4.10;;
8632;SDS011;4354;49.832;10.746;2022-10-04T21:57:03;3.67;;;3.10;;
8632;SDS011;4354;49.832;10.746;2022-10-04T21:59:30;3.43;;;2.83;;
8632;SDS011;4354;49.832;10.746;2022-10-04T22:01:57;4.23;;;3.00;;
8632;SDS011;4354;49.832;10.746;2022-10-04T22:04:24;3.60;;;2.50;;
8632;SDS011;4354;49.832;10.746;2022-10-04T22:06:50;6.07;;;2.87;;
8632;SDS011;4354;49.832;10.746;2022-10-04T22:09:17;5.37;;;2.97;;
8632;SDS011;4354;49.832;10.746;2022-10-04T22:11:44;8.43;;;2.80;;
8632;SDS011;4354;49.832;10.746;2022-10-04T22:14:11;11.27;;;3.60;;
8632;SDS011;4354;49.832;10.746;2022-10-04T22:16:38;5.90;;;3.53;;
8632;SDS011;4354;49.832;10.746;2022-10-04T22:19:05;5.20;;;3.57;;
8632;SDS011;4354;49.832;10.746;2022-10-04T22:21:32;6.13;;;3.60;;
8632;SDS011;4354;49.832;10.746;2022-10-04T22:24:00;4.17;;;3.53;;
8632;SDS011;4354;49.832;10.746;2022-10-04T22:26:29;8.87;;;4.07;;
8632;SDS011;4354;49.832;10.746;2022-10-04T22:28:57;4.87;;;3.97;;
8632;SDS011;4354;49.832;10.746;2022-10-04T22:31:24;5.67;;;4.43;;
8632;SDS011;4354;49.832;10.746;2022-10-04T22:33:53;7.67;;;4.93;;
8632;SDS011;4354;49.832;10.746;2022-10-04T22:36:37;5.20;;;4.50;;
8632;SDS011;4354;49.832;10.746;2022-10-04T22:41:39;6.80;;;4.63;;
8632;SDS011;4354;49.832;10.746;2022-10-04T22:44:24;7.90;;;4.83;;
8632;SDS011;4354;49.832;10.746;2022-10-04T22:46:56;5.30;;;4.47;;
8632;SDS011;4354;49.832;10.746;2022-10-04T22:49:26;6.67;;;4.50;;
8632;SDS011;4354;49.832;10.746;2022-10-04T22:51:58;5.10;;;4.60;;
8632;SDS011;4354;49.832;10.746;2022-10-04T22:54:31;6.90;;;4.53;;
8632;SDS011;4354;49.832;10.746;2022-10-04T22:57:00;4.93;;;4.27;;
8632;SDS011;4354;49.832;10.746;2022-10-04T22:59:32;8.27;;;4.20;;
8632;SDS011;4354;49.832;10.746;2022-10-04T23:02:05;5.53;;;3.97;;
8632;SDS011;4354;49.832;10.746;2022-10-04T23:04:39;4.90;;;3.77;;
8632;SDS011;4354;49.832;10.746;2022-10-04T23:07:17;4.20;;;3.30;;
8632;SDS011;4354;49.832;10.746;2022-10-04T23:09:45;3.40;;;3.10;;
8632;SDS011;4354;49.832;10.746;2022-10-04T23:12:12;4.50;;;3.20;;
8632;SDS011;4354;49.832;10.746;2022-10-04T23:14:39;4.27;;;3.87;;
8632;SDS011;4354;49.832;10.746;2022-10-04T23:17:20;4.20;;;3.73;;
8632;SDS011;4354;49.832;10.746;2022-10-04T23:19:56;5.30;;;3.60;;
8632;SDS011;4354;49.832;10.746;2022-10-04T23:22:45;4.90;;;3.73;;
8632;SDS011;4354;49.832;10.746;2022-10-04T23:25:15;4.10;;;3.70;;
8632;SDS011;4354;49.832;10.746;2022-10-04T23:27:51;4.77;;;4.07;;
8632;SDS011;4354;49.832;10.746;2022-10-04T23:30:23;4.77;;;4.37;;
8632;SDS011;4354;49.832;10.746;2022-10-04T23:32:51;5.17;;;4.20;;
8632;SDS011;4354;49.832;10.746;2022-10-04T23:35:25;4.90;;;4.43;;
8632;SDS011;4354;49.832;10.746;2022-10-04T23:37:56;5.20;;;4.33;;
8632;SDS011;4354;49.832;10.746;2022-10-04T23:40:23;5.40;;;4.20;;
8632;SDS011;4354;49.832;10.746;2022-10-04T23:42:52;6.17;;;4.20;;
8632;SDS011;4354;49.832;10.746;2022-10-04T23:45:22;3.93;;;3.57;;
8632;SDS011;4354;49.832;10.746;2022-10-04T23:47:51;7.63;;;4.13;;
8632;SDS011;4354;49.832;10.746;2022-10-04T23:50:21;4.47;;;3.63;;
8632;SDS011;4354;49.832;10.746;2022-10-04T23:52:55;5.53;;;3.60;;
8632;SDS011;4354;49.832;10.746;2022-10-04T23:55:30;4.43;;;3.37;;
8632;SDS011;4354;49.832;10.746;2022-10-04T23:58:05;6.13;;;4.07;;
